Time;durP1;ratioP1;P1;durP2;ratioP2;P2;SDS_P1;SDS_P2;PMS_P1;PMS_P2;Temp;Humidity;BMP_temperature;BMP_pressure;BME280_temperature;BME280_humidity;BME280_pressure;Samples;Min_cycle;Max_cycle;Signal;HPM_P1;HPM_P2
2023/07/31 00:00:27;;;;;;;4.78;2.53;;;15.30;99.90;;;;;;5123633;27;20070;-69
2023/07/31 00:02:53;;;;;;;4.28;2.55;;;15.30;99.90;;;;;;5123012;27;20049;-69
2023/07/31 00:05:19;;;;;;;3.00;2.35;;;15.30;99.90;;;;;;5119742;27;20039;-69
2023/07/31 00:07:45;;;;;;;4.25;2.47;;;15.30;99.90;;;;;;5122672;27;20050;-69
2023/07/31 00:10:10;;;;;;;4.80;2.50;;;15.30;99.90;;;;;;5122675;27;20042;-69
2023/07/31 00:12:37;;;;;;;3.17;2.35;;;15.20;99.90;;;;;;5106496;27;20034;-69
2023/07/31 00:15:04;;;;;;;5.70;2.53;;;15.20;99.90;;;;;;5121275;27;20039;-69
2023/07/31 00:17:30;;;;;;;3.35;2.40;;;15.20;99.90;;;;;;5123122;27;20408;-69
2023/07/31 00:19:55;;;;;;;3.05;2.00;;;15.20;99.90;;;;;;5121737;27;20043;-70
2023/07/31 00:22:21;;;;;;;3.97;2.40;;;15.20;99.90;;;;;;5107086;27;20063;-69
2023/07/31 00:24:47;;;;;;;2.55;2.10;;;15.20;99.90;;;;;;5126228;27;20549;-70
2023/07/31 00:27:12;;;;;;;2.60;1.88;;;15.10;99.90;;;;;;5134312;27;20096;-69
2023/07/31 00:29:38;;;;;;;2.80;1.95;;;15.10;99.90;;;;;;5108670;27;20051;-69
2023/07/31 00:32:04;;;;;;;2.47;2.00;;;15.10;99.90;;;;;;5103631;27;20062;-68
2023/07/31 00:34:29;;;;;;;2.00;1.75;;;15.00;99.90;;;;;;5106987;27;20051;-68
2023/07/31 00:36:55;;;;;;;2.05;1.60;;;15.00;99.90;;;;;;5126520;27;20049;-69
2023/07/31 00:39:21;;;;;;;2.53;1.58;;;15.00;99.90;;;;;;5124790;27;20379;-69
2023/07/31 00:41:46;;;;;;;2.67;1.67;;;15.00;99.90;;;;;;5121813;27;20512;-69
2023/07/31 00:44:12;;;;;;;2.65;1.83;;;15.00;99.90;;;;;;5127415;27;20050;-69
2023/07/31 00:46:37;;;;;;;2.92;1.70;;;15.00;99.90;;;;;;5125833;27;20035;-68
2023/07/31 00:49:05;;;;;;;3.08;1.77;;;15.00;99.90;;;;;;5126333;27;20074;-68
2023/07/31 00:51:31;;;;;;;1.73;1.50;;;15.00;99.90;;;;;;5126295;27;20157;-68
2023/07/31 00:53:57;;;;;;;1.88;1.40;;;15.00;99.90;;;;;;5127377;27;20203;-69
2023/07/31 00:56:25;;;;;;;1.92;1.40;;;15.00;99.90;;;;;;5125555;27;20046;-68
2023/07/31 00:58:50;;;;;;;1.73;1.40;;;15.00;99.90;;;;;;5131426;27;20046;-68
2023/07/31 01:01:16;;;;;;;2.03;1.25;;;15.00;99.90;;;;;;5126278;27;20477;-69
2023/07/31 01:03:42;;;;;;;1.83;1.30;;;15.00;99.90;;;;;;5126941;27;21596;-69
2023/07/31 01:06:34;;;;;;;2.97;1.38;;;15.00;99.90;;;;;;5117988;27;20047;-68
2023/07/31 01:09:04;;;;;;;1.27;1.10;;;15.00;99.90;;;;;;5126290;27;20057;-68
2023/07/31 01:11:37;;;;;;;2.15;1.02;;;15.00;99.90;;;;;;5129150;27;20058;-69
2023/07/31 01:14:05;;;;;;;2.55;1.30;;;15.00;99.90;;;;;;5125594;27;20082;-69
2023/07/31 01:16:31;;;;;;;1.17;0.88;;;14.90;99.90;;;;;;5133685;27;20507;-68
2023/07/31 01:18:56;;;;;;;1.20;0.85;;;14.90;99.90;;;;;;5125288;27;20054;-69
2023/07/31 01:21:56;;;;;;;1.10;0.93;;;14.90;99.90;;;;;;5125835;27;20078;-69
2023/07/31 01:24:43;;;;;;;1.13;1.00;;;15.00;99.90;;;;;;5124780;27;20074;-69
2023/07/31 01:27:14;;;;;;;3.70;1.00;;;15.00;99.90;;;;;;5124334;27;20057;-69
2023/07/31 01:29:45;;;;;;;0.98;0.88;;;14.90;99.90;;;;;;5124320;27;20039;-69
2023/07/31 01:32:11;;;;;;;3.25;0.98;;;14.90;99.90;;;;;;5127271;27;20069;-69
2023/07/31 01:34:38;;;;;;;1.05;1.00;;;14.90;99.90;;;;;;5122955;27;20031;-69
2023/07/31 01:37:04;;;;;;;0.73;0.73;;;14.90;99.90;;;;;;5124235;27;20058;-69
2023/07/31 01:39:30;;;;;;;1.67;0.80;;;15.00;99.90;;;;;;5125791;27;20030;-69
2023/07/31 01:41:56;;;;;;;1.48;1.20;;;15.00;99.90;;;;;;5127448;27;20091;-68
2023/07/31 01:44:21;;;;;;;1.00;1.00;;;15.00;99.90;;;;;;5124273;27;20050;-68
2023/07/31 01:46:47;;;;;;;1.35;0.85;;;15.00;99.90;;;;;;5124744;27;20081;-69
2023/07/31 01:49:12;;;;;;;1.67;0.90;;;15.00;99.90;;;;;;5127180;27;20137;-69
2023/07/31 01:51:38;;;;;;;2.17;1.10;;;15.00;99.90;;;;;;5126104;27;20065;-69
2023/07/31 01:54:04;;;;;;;1.83;1.10;;;15.00;99.90;;;;;;5127054;27;20127;-69
2023/07/31 01:56:29;;;;;;;2.10;1.27;;;15.00;99.90;;;;;;5121302;27;20031;-68
2023/07/31 01:58:55;;;;;;;1.92;1.08;;;15.00;99.90;;;;;;5121872;27;20039;-69
2023/07/31 02:01:21;;;;;;;1.55;1.10;;;15.00;99.90;;;;;;5126594;27;20052;-69
2023/07/31 02:03:46;;;;;;;1.95;1.23;;;15.00;99.90;;;;;;5120343;27;20031;-69
2023/07/31 02:06:12;;;;;;;1.48;1.00;;;15.10;99.90;;;;;;5123845;27;20047;-68
2023/07/31 02:08:37;;;;;;;1.63;1.30;;;15.10;99.90;;;;;;5123219;27;20027;-68
2023/07/31 02:11:03;;;;;;;1.90;1.10;;;15.10;99.90;;;;;;5124092;27;20046;-69
2023/07/31 02:13:29;;;;;;;1.38;1.27;;;15.10;99.90;;;;;;5125764;27;20042;-69
2023/07/31 02:15:55;;;;;;;1.67;1.20;;;15.10;99.90;;;;;;5112026;27;20070;-69
2023/07/31 02:18:22;;;;;;;1.95;1.50;;;15.10;99.90;;;;;;5121507;27;20050;-69
2023/07/31 02:20:51;;;;;;;3.67;1.50;;;15.10;99.90;;;;;;5125548;27;20047;-68
2023/07/31 02:23:18;;;;;;;2.05;1.70;;;15.10;99.90;;;;;;5124181;27;20899;-69
2023/07/31 02:25:44;;;;;;;2.13;1.80;;;15.10;99.90;;;;;;5122751;27;20056;-69
2023/07/31 02:28:10;;;;;;;1.90;1.70;;;15.20;99.90;;;;;;5117971;27;20046;-68
2023/07/31 02:30:36;;;;;;;2.10;1.90;;;15.20;99.90;;;;;;5121802;27;20039;-69
2023/07/31 02:33:02;;;;;;;1.80;1.70;;;15.20;99.90;;;;;;5124917;27;20042;-69
2023/07/31 02:35:27;;;;;;;2.17;1.88;;;15.20;99.90;;;;;;5106627;27;20030;-69
2023/07/31 02:37:53;;;;;;;2.55;1.83;;;15.20;99.90;;;;;;5120864;27;21550;-68
2023/07/31 02:40:19;;;;;;;1.70;1.60;;;15.20;99.90;;;;;;5126057;27;20095;-68
2023/07/31 02:42:44;;;;;;;2.38;1.60;;;15.20;99.90;;;;;;5120636;27;20433;-68
2023/07/31 02:45:10;;;;;;;2.35;1.80;;;15.20;99.90;;;;;;5123012;27;20054;-68
2023/07/31 02:47:35;;;;;;;1.77;1.52;;;15.30;99.90;;;;;;5118740;27;20069;-69
2023/07/31 02:50:02;;;;;;;2.63;1.35;;;15.30;99.90;;;;;;5130367;27;20022;-69
2023/07/31 02:52:28;;;;;;;1.63;1.33;;;15.30;99.90;;;;;;5121848;27;20389;-68
2023/07/31 02:54:54;;;;;;;2.95;1.45;;;15.30;99.90;;;;;;5126498;27;20050;-68
2023/07/31 02:57:19;;;;;;;2.10;1.60;;;15.30;99.90;;;;;;5128582;27;20031;-69
2023/07/31 02:59:45;;;;;;;2.65;1.60;;;15.30;99.90;;;;;;5124894;27;20477;-69
2023/07/31 03:02:12;;;;;;;2.97;1.90;;;15.40;99.90;;;;;;5122056;27;20111;-69
2023/07/31 03:04:37;;;;;;;3.50;1.88;;;15.40;99.90;;;;;;5121795;27;20031;-69
2023/07/31 03:07:03;;;;;;;3.72;1.90;;;15.40;99.90;;;;;;5122292;27;20046;-69
2023/07/31 03:09:29;;;;;;;3.92;1.90;;;15.40;99.90;;;;;;5125073;27;20452;-68
2023/07/31 03:11:54;;;;;;;3.35;1.85;;;15.40;99.90;;;;;;5119805;27;20104;-69
2023/07/31 03:14:20;;;;;;;2.83;2.03;;;15.40;99.90;;;;;;5120527;27;20035;-69
2023/07/31 03:16:45;;;;;;;2.50;1.90;;;15.40;99.90;;;;;;5119484;27;20054;-69
2023/07/31 03:19:11;;;;;;;1.95;1.60;;;15.50;99.90;;;;;;5125360;27;20171;-69
2023/07/31 03:21:37;;;;;;;3.05;1.92;;;15.50;99.90;;;;;;5125269;27;20489;-69
2023/07/31 03:24:03;;;;;;;2.35;1.67;;;15.50;99.90;;;;;;5124298;27;20046;-69
2023/07/31 03:26:32;;;;;;;2.15;1.95;;;15.50;99.90;;;;;;5125732;27;20085;-69
2023/07/31 03:28:57;;;;;;;2.67;1.98;;;15.50;99.90;;;;;;5120117;27;20138;-69
2023/07/31 03:31:23;;;;;;;3.42;2.28;;;15.50;99.90;;;;;;5105480;27;20133;-69
2023/07/31 03:33:48;;;;;;;3.60;2.40;;;15.60;99.90;;;;;;5114541;27;20480;-68
2023/07/31 03:36:14;;;;;;;5.68;2.78;;;15.60;99.90;;;;;;5124217;27;20501;-69
2023/07/31 03:38:40;;;;;;;7.53;3.03;;;15.60;99.90;;;;;;5121366;27;20141;-69
2023/07/31 03:41:06;;;;;;;6.43;3.30;;;15.60;99.90;;;;;;5123607;27;20023;-69
2023/07/31 03:43:33;;;;;;;9.25;3.25;;;15.60;99.90;;;;;;5116998;28;20039;-69
2023/07/31 03:46:00;;;;;;;9.45;3.70;;;15.60;99.90;;;;;;5121323;27;20081;-69
2023/07/31 03:48:26;;;;;;;7.97;4.00;;;15.70;99.90;;;;;;5119653;27;20150;-68
2023/07/31 03:50:51;;;;;;;11.68;3.92;;;15.60;99.90;;;;;;5136440;27;20129;-69
2023/07/31 03:53:17;;;;;;;9.50;3.90;;;15.70;99.90;;;;;;5123219;27;20045;-69
2023/07/31 03:55:43;;;;;;;8.95;3.45;;;15.70;99.90;;;;;;5122734;27;20852;-69
2023/07/31 03:58:08;;;;;;;11.68;3.22;;;15.70;99.90;;;;;;5124330;27;20404;-69
2023/07/31 04:00:34;;;;;;;7.13;3.72;;;15.70;99.90;;;;;;5109577;27;20462;-69
2023/07/31 04:03:00;;;;;;;9.88;3.85;;;15.70;99.90;;;;;;5128161;27;20039;-68
2023/07/31 04:05:25;;;;;;;8.05;3.88;;;15.70;99.90;;;;;;5125235;27;20055;-69
2023/07/31 04:07:51;;;;;;;9.00;3.40;;;15.70;99.90;;;;;;5123137;27;20079;-69
2023/07/31 04:10:17;;;;;;;8.18;3.70;;;15.80;99.90;;;;;;5125342;27;20039;-69
2023/07/31 04:12:42;;;;;;;9.10;3.90;;;15.80;99.90;;;;;;5128044;27;20043;-69
2023/07/31 04:15:08;;;;;;;10.55;3.90;;;15.80;99.90;;;;;;5127898;27;20129;-69
2023/07/31 04:17:34;;;;;;;9.30;3.95;;;15.80;99.90;;;;;;5124604;27;20149;-69
2023/07/31 04:19:59;;;;;;;8.65;4.07;;;15.80;99.90;;;;;;5127555;27;20039;-69
2023/07/31 04:22:25;;;;;;;10.43;4.25;;;15.80;99.90;;;;;;5126350;27;20447;-69
2023/07/31 04:24:51;;;;;;;13.45;5.30;;;15.80;99.90;;;;;;5127024;27;20113;-69
2023/07/31 04:27:16;;;;;;;15.32;5.00;;;15.80;99.90;;;;;;5121845;27;20821;-69
2023/07/31 04:29:44;;;;;;;21.70;5.55;;;15.80;99.90;;;;;;5125980;27;20073;-69
2023/07/31 04:32:09;;;;;;;17.55;5.82;;;15.80;99.90;;;;;;5133088;27;20042;-68
2023/07/31 04:34:35;;;;;;;17.45;6.00;;;15.80;99.90;;;;;;5128161;27;20159;-68
2023/07/31 04:37:01;;;;;;;20.17;6.18;;;15.80;99.90;;;;;;5119629;27;20050;-69
2023/07/31 04:39:26;;;;;;;18.45;6.50;;;15.80;99.90;;;;;;5130599;27;20046;-69
2023/07/31 04:41:52;;;;;;;21.08;6.70;;;15.80;99.90;;;;;;5127239;27;20038;-69
2023/07/31 04:44:17;;;;;;;24.20;6.68;;;15.90;99.90;;;;;;5125393;27;20039;-69
2023/07/31 04:46:43;;;;;;;19.63;6.15;;;15.80;99.90;;;;;;5124836;27;20122;-69
2023/07/31 04:49:09;;;;;;;21.58;7.22;;;15.90;99.90;;;;;;5125638;27;20039;-69
2023/07/31 04:51:34;;;;;;;22.65;7.05;;;15.90;99.90;;;;;;5123118;27;20079;-69
2023/07/31 04:54:00;;;;;;;24.52;6.65;;;15.80;99.90;;;;;;5126077;27;20042;-69
2023/07/31 04:56:25;;;;;;;20.48;7.10;;;15.90;99.90;;;;;;5123327;27;20118;-69
2023/07/31 04:58:51;;;;;;;28.15;7.07;;;15.80;99.90;;;;;;5143018;27;20034;-69
2023/07/31 05:01:17;;;;;;;27.27;7.47;;;15.90;99.90;;;;;;5119843;27;20393;-69
2023/07/31 05:03:42;;;;;;;26.40;7.80;;;15.80;99.90;;;;;;5130497;27;20038;-69
2023/07/31 05:06:08;;;;;;;25.35;7.90;;;15.80;99.90;;;;;;5132402;27;20384;-69
2023/07/31 05:08:33;;;;;;;25.65;8.13;;;15.90;99.90;;;;;;5106153;27;20074;-68
2023/07/31 05:10:59;;;;;;;29.20;7.72;;;15.90;99.90;;;;;;5123457;27;20031;-69
2023/07/31 05:13:24;;;;;;;24.45;8.52;;;15.90;99.90;;;;;;5099390;27;20047;-69
2023/07/31 05:15:50;;;;;;;37.30;8.73;;;15.90;99.90;;;;;;5118188;27;21640;-69
2023/07/31 05:18:16;;;;;;;31.60;8.20;;;15.90;99.90;;;;;;5123724;27;20162;-69
2023/07/31 05:20:41;;;;;;;29.80;8.40;;;15.90;99.90;;;;;;5125317;27;20073;-68
2023/07/31 05:23:07;;;;;;;25.17;8.43;;;15.90;99.90;;;;;;5134551;27;20034;-69
2023/07/31 05:25:33;;;;;;;31.75;8.38;;;15.90;99.90;;;;;;5136695;27;20031;-68
2023/07/31 05:27:58;;;;;;;28.20;8.48;;;15.90;99.90;;;;;;5144125;27;20031;-68
2023/07/31 05:30:24;;;;;;;30.67;8.20;;;16.00;99.90;;;;;;5134926;27;20083;-68
2023/07/31 05:32:49;;;;;;;31.50;8.38;;;16.00;99.90;;;;;;5120714;27;20039;-69
2023/07/31 05:35:15;;;;;;;24.65;7.72;;;16.00;99.90;;;;;;5120315;27;20167;-68
2023/07/31 05:37:41;;;;;;;31.30;8.02;;;16.00;99.90;;;;;;5114025;27;20031;-69
2023/07/31 05:40:07;;;;;;;23.80;8.23;;;16.00;99.90;;;;;;5116139;27;20039;-68
2023/07/31 05:42:32;;;;;;;32.25;8.48;;;16.00;99.90;;;;;;5118727;27;20034;-68
2023/07/31 05:44:58;;;;;;;30.50;8.85;;;16.00;99.90;;;;;;5125671;27;20031;-69
2023/07/31 05:47:24;;;;;;;32.17;8.70;;;15.90;99.90;;;;;;5147708;27;20030;-70
2023/07/31 05:49:52;;;;;;;37.53;10.25;;;16.00;99.90;;;;;;5100102;27;20138;-68
2023/07/31 05:52:18;;;;;;;36.38;10.00;;;15.90;99.90;;;;;;5117565;27;20050;-68
2023/07/31 05:54:45;;;;;;;36.80;9.45;;;15.90;99.90;;;;;;5129269;27;20046;-69
2023/07/31 05:57:11;;;;;;;34.72;9.52;;;15.90;99.90;;;;;;5127901;27;20043;-69
2023/07/31 05:59:37;;;;;;;31.38;8.57;;;16.00;99.90;;;;;;5132680;27;20083;-68
2023/07/31 06:02:02;;;;;;;30.40;9.20;;;16.00;99.90;;;;;;5118383;27;20042;-69
2023/07/31 06:04:28;;;;;;;26.58;8.10;;;16.00;99.90;;;;;;5128577;27;20054;-68
2023/07/31 06:06:54;;;;;;;27.58;9.77;;;16.00;99.90;;;;;;5121597;27;20485;-69
2023/07/31 06:09:20;;;;;;;30.20;9.63;;;16.00;99.90;;;;;;5114722;27;20043;-69
2023/07/31 06:11:46;;;;;;;25.05;8.73;;;16.00;99.90;;;;;;5117644;27;20051;-68
2023/07/31 06:14:12;;;;;;;23.10;9.18;;;16.00;99.90;;;;;;5119078;27;20145;-69
2023/07/31 06:16:37;;;;;;;24.23;8.23;;;16.00;99.90;;;;;;5123385;27;20126;-69
2023/07/31 06:19:03;;;;;;;24.95;8.60;;;16.10;99.90;;;;;;5122778;27;20043;-69
2023/07/31 06:21:29;;;;;;;29.90;9.18;;;16.00;99.90;;;;;;5114955;27;20051;-69
2023/07/31 06:23:55;;;;;;;27.40;9.27;;;16.00;99.90;;;;;;5123269;27;20042;-68
2023/07/31 06:26:21;;;;;;;30.38;9.02;;;16.00;99.90;;;;;;5116742;27;20049;-69
2023/07/31 06:28:46;;;;;;;29.80;9.55;;;16.00;99.90;;;;;;5102100;27;20076;-69
2023/07/31 06:31:12;;;;;;;33.10;11.50;;;16.00;99.90;;;;;;5151442;27;20035;-69
2023/07/31 06:33:38;;;;;;;28.08;10.23;;;16.00;99.90;;;;;;5113830;27;20042;-69
2023/07/31 06:36:03;;;;;;;30.80;8.60;;;16.00;99.90;;;;;;5113885;27;20043;-69
2023/07/31 06:38:29;;;;;;;24.92;8.43;;;16.00;99.90;;;;;;5126983;27;20495;-69
2023/07/31 06:40:55;;;;;;;22.13;8.23;;;15.90;99.90;;;;;;5124329;27;20149;-68
2023/07/31 06:43:21;;;;;;;23.23;8.68;;;15.90;99.90;;;;;;5114992;27;20081;-69
2023/07/31 06:45:49;;;;;;;19.83;7.15;;;15.90;99.90;;;;;;5113540;27;20042;-68
2023/07/31 06:48:15;;;;;;;17.80;7.47;;;15.90;99.90;;;;;;5124410;27;20450;-69
2023/07/31 06:50:41;;;;;;;16.17;6.70;;;15.90;99.90;;;;;;5133802;27;20053;-69
2023/07/31 06:53:06;;;;;;;45.65;16.85;;;15.90;99.90;;;;;;5126818;27;20066;-68
2023/07/31 06:55:32;;;;;;;13.85;6.30;;;15.90;99.90;;;;;;5126943;27;20038;-69
2023/07/31 06:57:58;;;;;;;15.90;6.30;;;15.90;99.90;;;;;;5119311;27;20062;-69
2023/07/31 07:00:23;;;;;;;13.52;5.20;;;15.90;99.90;;;;;;5129349;27;20038;-69
2023/07/31 07:02:49;;;;;;;11.40;4.65;;;16.00;99.90;;;;;;5133831;27;20042;-69
2023/07/31 07:05:16;;;;;;;8.90;4.07;;;16.00;99.90;;;;;;5132238;27;20039;-69
2023/07/31 07:07:42;;;;;;;8.63;3.70;;;16.00;99.90;;;;;;5133799;27;20035;-69
2023/07/31 07:10:08;;;;;;;10.35;4.10;;;16.00;99.90;;;;;;5130122;27;20155;-69
2023/07/31 07:12:35;;;;;;;9.07;4.57;;;16.00;99.90;;;;;;5116517;27;20062;-69
2023/07/31 07:15:01;;;;;;;11.02;4.38;;;16.00;99.90;;;;;;5097882;27;20159;-69
2023/07/31 07:17:32;;;;;;;55.20;12.52;;;16.10;99.90;;;;;;5125477;27;20072;-69
2023/07/31 07:19:59;;;;;;;54.13;13.03;;;16.20;99.90;;;;;;5133408;27;20075;-68
2023/07/31 07:22:26;;;;;;;11.05;4.63;;;16.10;99.90;;;;;;5121588;27;20289;-68
2023/07/31 07:24:52;;;;;;;8.00;4.22;;;16.20;99.90;;;;;;5113618;27;20039;-68
2023/07/31 07:27:18;;;;;;;6.72;3.80;;;16.20;99.90;;;;;;5125986;27;20109;-69
2023/07/31 07:29:45;;;;;;;7.72;4.15;;;16.20;99.90;;;;;;5133679;27;20118;-70
2023/07/31 07:32:11;;;;;;;6.60;3.30;;;16.20;99.90;;;;;;5130256;27;20118;-69
2023/07/31 07:34:37;;;;;;;6.93;3.40;;;16.30;99.90;;;;;;5112649;27;20134;-69
2023/07/31 07:37:03;;;;;;;6.72;3.40;;;16.30;99.90;;;;;;5112477;27;20442;-69
2023/07/31 07:39:29;;;;;;;6.18;3.28;;;16.30;99.90;;;;;;5112717;27;20447;-68
2023/07/31 07:41:54;;;;;;;5.95;2.95;;;16.30;99.90;;;;;;5112922;27;20038;-69
2023/07/31 07:44:20;;;;;;;5.20;2.90;;;16.30;99.90;;;;;;5131499;27;20046;-69
2023/07/31 07:46:46;;;;;;;6.18;3.38;;;16.30;99.90;;;;;;5121887;27;20065;-69
2023/07/31 07:49:11;;;;;;;5.40;2.67;;;16.30;99.90;;;;;;5131185;27;20035;-69
2023/07/31 07:51:37;;;;;;;7.75;2.75;;;16.30;99.90;;;;;;5112714;27;20390;-69
2023/07/31 07:54:02;;;;;;;4.50;2.67;;;16.20;99.90;;;;;;5122935;27;20030;-67
2023/07/31 07:56:28;;;;;;;3.80;2.65;;;16.20;99.90;;;;;;5122535;27;20039;-66
2023/07/31 07:58:54;;;;;;;4.47;2.40;;;16.20;99.90;;;;;;5094041;27;20551;-68
2023/07/31 08:01:20;;;;;;;5.18;2.25;;;16.20;99.90;;;;;;5119537;27;20484;-68
2023/07/31 08:03:47;;;;;;;3.80;2.63;;;16.20;99.90;;;;;;5125334;27;20043;-68
2023/07/31 08:06:13;;;;;;;5.43;2.30;;;16.20;99.90;;;;;;5117210;27;20493;-68
2023/07/31 08:08:38;;;;;;;5.13;2.42;;;16.30;99.90;;;;;;5116262;27;20042;-67
2023/07/31 08:11:04;;;;;;;3.47;2.50;;;16.30;99.90;;;;;;5128291;27;20079;-68
2023/07/31 08:13:30;;;;;;;2.53;1.98;;;16.30;99.90;;;;;;5113132;27;20042;-67
2023/07/31 08:15:56;;;;;;;3.50;2.17;;;16.40;99.90;;;;;;5123133;27;20043;-68
2023/07/31 08:18:21;;;;;;;4.15;2.25;;;16.40;99.90;;;;;;5125120;27;20111;-67
2023/07/31 08:20:47;;;;;;;2.95;2.20;;;16.50;99.90;;;;;;5111847;27;20512;-69
2023/07/31 08:23:13;;;;;;;4.10;2.05;;;16.50;99.90;;;;;;5129322;27;20393;-66
2023/07/31 08:25:39;;;;;;;3.80;2.40;;;16.50;99.90;;;;;;5109951;27;20050;-65
2023/07/31 08:28:06;;;;;;;3.92;2.20;;;16.50;99.90;;;;;;5131648;27;20047;-67
2023/07/31 08:30:33;;;;;;;3.40;2.30;;;16.50;99.90;;;;;;5131371;27;20071;-68
2023/07/31 08:33:00;;;;;;;3.00;2.10;;;16.50;99.90;;;;;;5115119;27;20039;-69
2023/07/31 08:35:28;;;;;;;2.63;1.95;;;16.60;99.90;;;;;;5119495;27;20031;-68
2023/07/31 08:37:53;;;;;;;2.53;2.00;;;16.60;99.90;;;;;;5130320;27;20117;-68
2023/07/31 08:40:19;;;;;;;2.72;2.00;;;16.70;99.90;;;;;;5149393;27;20128;-67
2023/07/31 08:42:49;;;;;;;2.60;1.90;;;16.70;99.90;;;;;;5132606;27;20464;-69
2023/07/31 08:45:17;;;;;;;2.17;1.65;;;16.70;99.90;;;;;;5130891;27;20039;-66
2023/07/31 08:47:46;;;;;;;2.28;1.73;;;16.70;99.90;;;;;;5133929;27;20046;-66
2023/07/31 08:50:17;;;;;;;3.42;2.00;;;16.80;99.90;;;;;;5129906;27;20123;-67
2023/07/31 08:52:43;;;;;;;2.55;1.83;;;16.80;99.90;;;;;;5121719;27;20434;-66
2023/07/31 08:55:10;;;;;;;2.28;1.92;;;16.90;99.90;;;;;;5116515;27;20038;-67
2023/07/31 08:57:37;;;;;;;2.17;1.60;;;16.90;99.90;;;;;;5127184;27;20102;-67
2023/07/31 09:00:05;;;;;;;3.83;1.92;;;16.90;99.90;;;;;;5130130;27;20110;-68
2023/07/31 09:02:49;;;;;;;2.10;1.58;;;16.90;99.90;;;;;;5130538;27;20042;-67
2023/07/31 09:05:16;;;;;;;2.38;1.77;;;16.90;99.90;;;;;;5115844;27;20043;-67
2023/07/31 09:07:46;;;;;;;2.10;1.40;;;16.90;99.90;;;;;;5119622;27;20406;-68
2023/07/31 09:10:12;;;;;;;3.20;1.50;;;16.90;99.90;;;;;;5115344;27;20060;-66
2023/07/31 09:12:38;;;;;;;2.67;1.27;;;16.90;99.90;;;;;;5098640;27;20379;-68
2023/07/31 09:15:05;;;;;;;2.08;1.40;;;16.90;99.90;;;;;;5132074;27;20046;-69
2023/07/31 09:17:32;;;;;;;3.35;1.30;;;16.90;99.90;;;;;;5129206;27;20039;-66
2023/07/31 09:20:12;;;;;;;1.52;1.20;;;16.90;99.90;;;;;;5125456;27;20046;-70
2023/07/31 09:22:37;;;;;;;2.75;1.50;;;16.90;99.90;;;;;;5135479;27;20106;-67
2023/07/31 09:25:21;;;;;;;1.52;1.15;;;17.00;99.90;;;;;;5135476;27;20163;-67
2023/07/31 09:27:58;;;;;;;2.63;1.30;;;17.10;99.90;;;;;;5130668;27;20043;-68
2023/07/31 09:30:24;;;;;;;2.60;1.30;;;17.20;99.90;;;;;;5120994;27;20126;-66
2023/07/31 09:32:51;;;;;;;1.90;1.30;;;17.30;99.90;;;;;;5121882;27;20159;-67
2023/07/31 09:35:22;;;;;;;1.50;1.20;;;17.30;99.90;;;;;;5118014;27;20054;-65
2023/07/31 09:38:09;;;;;;;1.37;1.27;;;17.30;99.90;;;;;;5117226;27;20070;-66
2023/07/31 09:40:40;;;;;;;1.85;1.48;;;17.30;99.90;;;;;;5117420;27;20035;-66
2023/07/31 09:43:20;;;;;;;2.47;1.80;;;17.30;99.90;;;;;;5129807;27;20099;-67
2023/07/31 09:45:46;;;;;;;2.90;1.48;;;17.30;99.90;;;;;;5121082;27;20046;-67
2023/07/31 09:48:16;;;;;;;1.88;1.67;;;17.30;99.90;;;;;;5143024;27;20095;-68
2023/07/31 09:50:44;;;;;;;1.70;1.50;;;17.30;99.90;;;;;;5144060;27;20045;-68
2023/07/31 09:53:10;;;;;;;1.73;1.63;;;17.40;99.90;;;;;;5116150;27;20068;-67
2023/07/31 09:55:37;;;;;;;2.13;1.70;;;17.50;99.90;;;;;;5119311;27;20046;-67
2023/07/31 09:58:09;;;;;;;1.58;1.48;;;17.50;99.90;;;;;;5128261;27;20065;-67
2023/07/31 10:00:35;;;;;;;1.57;1.47;;;17.60;99.90;;;;;;5114176;27;20042;-65
2023/07/31 10:03:09;;;;;;;2.47;1.42;;;17.60;99.90;;;;;;5116909;27;20296;-66
2023/07/31 10:05:37;;;;;;;3.53;1.80;;;17.60;99.90;;;;;;5115661;27;20220;-67
2023/07/31 10:08:03;;;;;;;1.98;1.85;;;17.70;99.90;;;;;;5115570;27;20031;-69
2023/07/31 10:10:31;;;;;;;1.90;1.80;;;17.70;99.90;;;;;;5115023;27;20039;-66
2023/07/31 10:12:57;;;;;;;3.25;1.80;;;17.80;99.90;;;;;;5116426;27;20047;-68
2023/07/31 10:15:24;;;;;;;2.10;1.90;;;17.80;99.90;;;;;;5125017;27;20373;-66
2023/07/31 10:17:50;;;;;;;3.15;1.85;;;17.90;99.90;;;;;;5114077;27;20046;-67
2023/07/31 10:20:17;;;;;;;2.45;2.20;;;17.90;99.90;;;;;;5116023;27;20051;-68
2023/07/31 10:22:45;;;;;;;2.22;2.03;;;17.90;99.90;;;;;;5120727;27;20129;-66
2023/07/31 10:25:11;;;;;;;2.38;2.17;;;17.80;99.90;;;;;;5123709;27;20034;-68
2023/07/31 10:27:39;;;;;;;3.25;2.10;;;17.80;99.90;;;;;;5109785;27;20031;-68
2023/07/31 10:30:07;;;;;;;2.13;1.92;;;17.70;99.90;;;;;;5118216;27;20058;-67
2023/07/31 10:32:34;;;;;;;1.95;1.85;;;17.80;99.90;;;;;;5133024;27;20046;-68
2023/07/31 10:35:02;;;;;;;2.20;1.60;;;17.70;99.90;;;;;;5126038;27;20453;-65
2023/07/31 10:37:46;;;;;;;2.95;1.33;;;17.70;99.90;;;;;;5129579;27;20580;-67
2023/07/31 10:40:23;;;;;;;1.63;1.48;;;17.70;99.90;;;;;;5125292;27;20091;-68
2023/07/31 10:42:53;;;;;;;1.50;1.40;;;17.70;99.90;;;;;;5114080;27;20374;-68
2023/07/31 10:45:33;;;;;;;1.65;1.25;;;17.70;99.90;;;;;;5098547;27;20502;-66
2023/07/31 10:48:07;;;;;;;1.95;1.20;;;17.70;99.90;;;;;;5132475;27;20109;-67
2023/07/31 10:50:37;;;;;;;1.35;1.25;;;17.70;99.90;;;;;;5132488;27;20050;-65
2023/07/31 10:53:04;;;;;;;1.30;1.20;;;17.70;99.90;;;;;;5134203;27;20489;-65
2023/07/31 10:55:51;;;;;;;1.35;1.25;;;17.80;99.90;;;;;;5133977;27;20038;-67
2023/07/31 10:58:19;;;;;;;1.85;1.60;;;17.80;99.90;;;;;;5130907;27;20047;-68
2023/07/31 11:00:45;;;;;;;1.55;1.45;;;17.90;99.90;;;;;;5120875;27;20043;-67
2023/07/31 11:03:16;;;;;;;1.80;1.70;;;17.90;99.90;;;;;;5113005;27;20035;-68
2023/07/31 11:06:03;;;;;;;1.67;1.58;;;17.90;99.90;;;;;;5132491;27;20117;-66
2023/07/31 11:08:34;;;;;;;2.78;1.33;;;17.90;99.90;;;;;;5132392;27;20037;-68
2023/07/31 11:11:02;;;;;;;1.00;0.90;;;17.90;99.90;;;;;;5124146;27;20043;-67
2023/07/31 11:13:32;;;;;;;1.08;0.98;;;17.90;99.90;;;;;;5133369;27;20042;-66
2023/07/31 11:15:58;;;;;;;1.08;1.00;;;18.00;99.90;;;;;;5119219;27;20094;-66
2023/07/31 11:18:26;;;;;;;1.48;0.95;;;18.00;99.90;;;;;;5129152;27;20049;-65
2023/07/31 11:20:53;;;;;;;1.33;1.02;;;18.00;99.90;;;;;;5124109;27;20031;-68
2023/07/31 11:23:19;;;;;;;2.15;0.98;;;18.00;99.90;;;;;;5131090;27;20508;-68
2023/07/31 11:25:45;;;;;;;1.63;1.20;;;18.00;99.90;;;;;;5117880;27;20038;-67
2023/07/31 11:28:12;;;;;;;1.48;1.10;;;18.10;99.90;;;;;;5123261;27;20758;-66
2023/07/31 11:30:43;;;;;;;3.08;1.50;;;18.10;99.90;;;;;;5115228;27;20485;-68
2023/07/31 11:33:10;;;;;;;2.15;1.90;;;18.20;99.90;;;;;;5123375;27;20039;-67
2023/07/31 11:35:44;;;;;;;4.22;2.03;;;18.50;99.90;;;;;;5120497;27;20114;-67
2023/07/31 11:38:12;;;;;;;6.05;2.22;;;18.60;99.90;;;;;;5112507;27;20084;-66
2023/07/31 11:40:44;;;;;;;6.70;2.28;;;18.70;99.90;;;;;;5115317;27;20051;-67
2023/07/31 11:43:16;;;;;;;5.32;2.42;;;18.70;99.90;;;;;;5123545;27;20034;-67
2023/07/31 11:45:42;;;;;;;8.07;3.28;;;18.70;99.90;;;;;;5113112;27;20039;-68
2023/07/31 11:48:07;;;;;;;2.88;1.30;;;18.70;99.90;;;;;;5112397;28;20112;-68
2023/07/31 11:50:35;;;;;;;6.97;1.58;;;18.70;99.90;;;;;;5113713;28;20088;-65
2023/07/31 11:53:06;;;;;;;2.60;1.40;;;18.70;99.90;;;;;;5114413;28;20035;-66
2023/07/31 11:55:32;;;;;;;5.53;1.25;;;18.70;99.90;;;;;;5112752;28;20466;-66
2023/07/31 11:57:59;;;;;;;5.32;1.45;;;18.60;99.90;;;;;;5118986;27;20035;-67
2023/07/31 12:00:25;;;;;;;2.13;1.00;;;18.50;99.90;;;;;;5113965;27;20149;-67
2023/07/31 12:02:52;;;;;;;2.65;1.00;;;18.40;99.90;;;;;;5119565;27;20039;-68
2023/07/31 12:05:17;;;;;;;2.70;0.90;;;18.40;99.90;;;;;;5129420;27;20035;-68
2023/07/31 12:07:48;;;;;;;1.83;1.20;;;18.40;99.90;;;;;;5129682;27;20120;-67
2023/07/31 12:10:29;;;;;;;4.03;1.40;;;18.30;99.90;;;;;;5133062;27;20035;-66
2023/07/31 12:13:08;;;;;;;3.85;1.48;;;18.40;99.90;;;;;;5130491;27;20155;-66
2023/07/31 12:15:39;;;;;;;5.35;1.65;;;18.30;99.90;;;;;;5098732;27;20126;-67
2023/07/31 12:18:21;;;;;;;5.00;1.80;;;18.50;99.90;;;;;;5117343;27;20046;-68
2023/07/31 12:20:48;;;;;;;;;;;18.60;99.90;;;;;;5116813;27;20047;-69
2023/07/31 12:23:27;;;;;;;5.43;2.00;;;18.70;99.90;;;;;;5116982;27;20648;-66
2023/07/31 12:26:13;;;;;;;6.40;2.65;;;18.80;99.90;;;;;;5116226;27;20093;-66
2023/07/31 12:28:46;;;;;;;5.75;2.17;;;18.80;99.90;;;;;;5116259;27;20043;-68
2023/07/31 12:31:17;;;;;;;4.93;2.40;;;18.90;99.90;;;;;;5116391;27;20107;-66
2023/07/31 12:33:43;;;;;;;8.10;2.38;;;19.00;99.90;;;;;;5125496;27;20109;-66
2023/07/31 12:36:11;;;;;;;6.13;1.90;;;19.10;99.90;;;;;;5120504;27;20035;-66
2023/07/31 12:38:37;;;;;;;7.30;2.17;;;19.30;99.90;;;;;;5120862;27;20059;-67
2023/07/31 12:41:03;;;;;;;4.82;2.10;;;19.50;99.90;;;;;;5116142;27;20386;-66
2023/07/31 12:43:29;;;;;;;7.25;2.20;;;19.70;99.90;;;;;;5116157;27;20375;-66
2023/07/31 12:45:58;;;;;;;6.78;2.10;;;19.80;99.90;;;;;;5128181;27;20062;-67